Time;durP1;ratioP1;P1;durP2;ratioP2;P2;SDS_P1;SDS_P2;PMS_P1;PMS_P2;Temp;Humidity;BMP_temperature;BMP_pressure;BME280_temperature;BME280_humidity;BME280_pressure;Samples;Min_cycle;Max_cycle;Signal;HPM_P1;HPM_P2
2023/04/13 00:01:10;;;;;;;4.93;4.20;;;10.40;99.90;;;;;;5095136;28;20466;-62
2023/04/13 00:03:38;;;;;;;4.80;3.70;;;10.40;99.90;;;;;;5094181;28;20514;-63
2023/04/13 00:06:11;;;;;;;10.23;4.70;;;10.40;99.90;;;;;;5094493;28;20438;-61
2023/04/13 00:08:41;;;;;;;7.07;4.17;;;10.30;99.90;;;;;;5094177;28;20550;-63
2023/04/13 00:11:09;;;;;;;7.63;5.30;;;10.30;99.90;;;;;;5094417;28;20472;-62
2023/04/13 00:13:39;;;;;;;6.90;5.30;;;10.30;99.90;;;;;;5094669;28;20470;-64
2023/04/13 00:16:08;;;;;;;4.93;4.53;;;10.30;99.90;;;;;;5094280;28;20421;-61
2023/04/13 00:18:43;;;;;;;5.43;4.10;;;10.30;99.90;;;;;;5094194;28;20470;-62
2023/04/13 00:21:11;;;;;;;6.00;4.13;;;10.30;99.90;;;;;;5094040;28;20491;-62
2023/04/13 00:23:38;;;;;;;6.80;4.33;;;10.20;99.90;;;;;;5094564;28;20462;-63
2023/04/13 00:26:07;;;;;;;7.83;5.50;;;10.20;99.90;;;;;;5094518;28;20465;-62
2023/04/13 00:28:37;;;;;;;6.40;4.50;;;10.20;99.90;;;;;;5094731;28;20462;-61
2023/04/13 00:31:05;;;;;;;7.43;5.00;;;10.20;99.90;;;;;;5094491;28;20430;-64
2023/04/13 00:33:33;;;;;;;8.93;5.47;;;10.20;99.90;;;;;;5094151;28;20498;-61
2023/04/13 00:36:01;;;;;;;6.53;5.47;;;10.20;99.90;;;;;;5094497;28;20809;-65
2023/04/13 00:38:28;;;;;;;5.37;4.40;;;10.10;99.90;;;;;;5094563;28;20462;-64
2023/04/13 00:40:55;;;;;;;6.17;5.30;;;10.10;99.90;;;;;;5093861;28;20478;-63
2023/04/13 00:43:22;;;;;;;10.50;5.07;;;10.10;99.90;;;;;;5093974;28;20465;-61
2023/04/13 00:45:50;;;;;;;5.90;5.13;;;10.10;99.90;;;;;;5094572;28;20505;-63
2023/04/13 00:48:17;;;;;;;5.70;5.13;;;10.10;99.90;;;;;;5094132;28;20470;-60
2023/04/13 00:50:45;;;;;;;4.63;3.90;;;10.00;99.90;;;;;;5096527;28;20468;-64
2023/04/13 00:53:14;;;;;;;8.43;4.07;;;10.00;99.90;;;;;;5098007;28;20480;-62
2023/04/13 00:55:42;;;;;;;5.33;4.33;;;10.00;99.90;;;;;;5097738;28;20431;-62
2023/04/13 00:58:12;;;;;;;6.77;5.23;;;10.00;99.90;;;;;;5097139;28;20458;-63
2023/04/13 01:00:41;;;;;;;7.43;4.67;;;10.00;99.90;;;;;;5098401;28;20498;-63
2023/04/13 01:03:08;;;;;;;13.63;6.97;;;10.00;99.90;;;;;;5097481;28;20437;-62
2023/04/13 01:05:49;;;;;;;12.57;5.47;;;9.90;99.90;;;;;;5098037;28;20438;-61
2023/04/13 01:08:25;;;;;;;9.67;4.83;;;9.90;99.90;;;;;;5098391;28;20442;-62
2023/04/13 01:10:56;;;;;;;7.53;5.10;;;9.80;99.90;;;;;;5098622;28;20430;-61
2023/04/13 01:13:30;;;;;;;9.50;4.93;;;9.80;99.90;;;;;;5098879;28;20473;-61
2023/04/13 01:16:03;;;;;;;9.23;6.30;;;9.80;99.90;;;;;;5098944;28;20452;-61
2023/04/13 01:18:33;;;;;;;7.40;5.33;;;9.80;99.90;;;;;;5098468;28;20481;-61
2023/04/13 01:21:03;;;;;;;5.10;4.60;;;9.70;99.90;;;;;;5097981;28;20505;-63
2023/04/13 01:23:49;;;;;;;7.17;5.17;;;9.70;99.90;;;;;;5097651;28;20509;-63
2023/04/13 01:26:17;;;;;;;6.03;4.83;;;9.70;99.90;;;;;;5097126;28;20438;-63
2023/04/13 01:28:47;;;;;;;7.10;5.30;;;9.60;99.90;;;;;;5097088;28;20466;-63
2023/04/13 01:31:15;;;;;;;8.00;5.93;;;9.60;99.90;;;;;;5096744;28;20431;-63
2023/04/13 01:33:44;;;;;;;10.30;6.67;;;9.60;99.90;;;;;;5096897;28;20466;-63
2023/04/13 01:36:11;;;;;;;6.70;5.70;;;9.50;99.90;;;;;;5096974;28;20430;-62
2023/04/13 01:38:44;;;;;;;11.07;5.97;;;9.50;99.90;;;;;;5096708;28;20461;-62
2023/04/13 01:41:12;;;;;;;8.90;5.40;;;9.40;99.90;;;;;;5097924;28;20462;-62
2023/04/13 01:43:39;;;;;;;12.00;6.60;;;9.40;99.90;;;;;;5097667;28;20970;-65
2023/04/13 01:46:10;;;;;;;13.00;7.00;;;9.40;99.90;;;;;;5097219;28;20453;-62
2023/04/13 01:48:41;;;;;;;16.17;6.30;;;9.40;99.90;;;;;;5096782;28;20438;-62
2023/04/13 01:51:12;;;;;;;8.53;5.20;;;9.30;99.90;;;;;;5096959;28;20434;-61
2023/04/13 01:53:43;;;;;;;10.53;5.33;;;9.30;99.90;;;;;;5097153;28;20423;-61
2023/04/13 01:56:14;;;;;;;16.60;6.13;;;9.20;99.90;;;;;;5096787;28;20453;-62
2023/04/13 01:58:42;;;;;;;7.47;5.03;;;9.20;99.90;;;;;;5095776;28;20428;-62
2023/04/13 02:01:11;;;;;;;8.20;4.50;;;9.10;99.90;;;;;;5096388;28;20419;-61
2023/04/13 02:03:38;;;;;;;7.53;5.17;;;9.10;99.90;;;;;;5095911;28;20442;-61
2023/04/13 02:06:06;;;;;;;10.57;5.90;;;9.10;99.90;;;;;;5096470;28;20442;-61
2023/04/13 02:08:35;;;;;;;8.83;5.27;;;9.00;99.90;;;;;;5126446;22;20912;-65
2023/04/13 02:11:03;;;;;;;8.57;5.60;;;9.00;99.90;;;;;;5057655;28;20464;-65
2023/04/13 02:13:30;;;;;;;8.30;5.17;;;9.00;99.90;;;;;;5057675;28;20487;-65
2023/04/13 02:15:58;;;;;;;6.40;5.27;;;9.00;99.90;;;;;;5056799;28;20479;-65
2023/04/13 02:18:27;;;;;;;11.03;5.83;;;8.90;99.90;;;;;;5057012;28;20498;-66
2023/04/13 02:21:01;;;;;;;8.40;5.80;;;8.90;99.90;;;;;;5057438;28;20459;-65
2023/04/13 02:23:30;;;;;;;7.10;5.27;;;8.80;99.90;;;;;;5057651;28;20981;-65
2023/04/13 02:25:57;;;;;;;9.27;5.37;;;8.80;99.90;;;;;;5057478;28;20846;-66
2023/04/13 02:28:26;;;;;;;9.90;5.50;;;8.80;99.90;;;;;;5057754;28;20436;-64
2023/04/13 02:30:54;;;;;;;8.00;5.10;;;8.70;99.90;;;;;;5057168;28;20471;-65
2023/04/13 02:33:21;;;;;;;6.20;4.60;;;8.70;99.90;;;;;;5057425;28;20517;-66
2023/04/13 02:35:50;;;;;;;7.70;4.37;;;8.60;99.90;;;;;;5057630;28;20495;-65
2023/04/13 02:38:18;;;;;;;7.73;4.87;;;8.60;99.90;;;;;;5058073;28;20490;-64
2023/04/13 02:40:46;;;;;;;7.97;4.97;;;8.60;99.90;;;;;;5056701;28;20463;-66
2023/04/13 02:43:13;;;;;;;8.93;4.63;;;8.60;99.90;;;;;;5057342;28;20551;-65
2023/04/13 02:45:40;;;;;;;7.73;5.20;;;8.60;99.90;;;;;;5056693;28;20471;-65
2023/04/13 02:48:09;;;;;;;9.00;4.33;;;8.60;99.90;;;;;;5057398;28;20795;-64
2023/04/13 02:50:36;;;;;;;8.07;4.97;;;8.50;99.90;;;;;;5056995;28;20999;-66
2023/04/13 02:53:06;;;;;;;6.30;3.90;;;8.50;99.90;;;;;;5056953;28;20435;-65
2023/04/13 02:55:36;;;;;;;13.07;5.10;;;8.40;99.90;;;;;;5056845;28;20510;-64
2023/04/13 02:58:05;;;;;;;6.60;4.40;;;8.40;99.90;;;;;;5057235;28;20444;-65
2023/04/13 03:00:32;;;;;;;8.90;5.30;;;8.40;99.90;;;;;;5057121;28;20558;-64
2023/04/13 03:03:02;;;;;;;8.10;4.63;;;8.30;99.90;;;;;;5056714;28;20486;-65
2023/04/13 03:05:30;;;;;;;8.10;4.30;;;8.30;99.90;;;;;;5057212;28;20505;-66
2023/04/13 03:07:58;;;;;;;7.10;4.57;;;8.20;99.90;;;;;;5055926;28;20538;-66
2023/04/13 03:10:26;;;;;;;11.03;5.30;;;8.10;99.90;;;;;;5055999;28;20447;-67
2023/04/13 03:12:53;;;;;;;9.03;4.37;;;8.20;99.90;;;;;;5055174;28;20864;-65
2023/04/13 03:15:21;;;;;;;10.17;6.30;;;8.10;99.90;;;;;;5055358;28;20846;-66
2023/04/13 03:17:48;;;;;;;9.50;5.27;;;8.10;99.90;;;;;;5055117;28;20443;-66
2023/04/13 03:20:15;;;;;;;10.93;4.20;;;8.10;99.90;;;;;;5055476;28;20493;-64
2023/04/13 03:22:43;;;;;;;8.37;4.20;;;8.10;99.90;;;;;;5055269;28;20550;-65
2023/04/13 03:25:11;;;;;;;7.70;4.23;;;8.10;99.90;;;;;;5055405;28;20966;-65
2023/04/13 03:27:41;;;;;;;5.30;3.67;;;8.20;99.90;;;;;;5055174;28;20447;-66
2023/04/13 03:30:09;;;;;;;7.60;3.87;;;8.20;99.90;;;;;;5055476;28;20513;-65
2023/04/13 03:32:37;;;;;;;4.53;3.07;;;8.20;99.90;;;;;;5054824;28;20479;-66
2023/04/13 03:35:05;;;;;;;5.40;4.03;;;8.20;99.90;;;;;;5053595;28;20451;-66
2023/04/13 03:37:39;;;;;;;8.27;3.87;;;8.20;99.90;;;;;;5054799;28;20444;-66
2023/04/13 03:40:09;;;;;;;4.47;3.30;;;8.20;99.90;;;;;;5055240;28;20451;-66
2023/04/13 03:42:36;;;;;;;6.17;3.17;;;8.20;99.90;;;;;;5054901;28;20549;-65
2023/04/13 03:45:05;;;;;;;9.27;3.73;;;8.20;99.90;;;;;;5054371;28;20511;-66
2023/04/13 03:47:32;;;;;;;5.83;3.23;;;8.20;99.90;;;;;;5054089;28;20521;-65
2023/04/13 03:49:59;;;;;;;3.57;3.07;;;8.20;99.90;;;;;;5055167;28;20456;-65
2023/04/13 03:52:26;;;;;;;7.50;3.63;;;8.20;99.90;;;;;;5054193;28;20526;-65
2023/04/13 03:54:54;;;;;;;5.27;3.40;;;8.30;99.90;;;;;;5054705;28;20431;-64
2023/04/13 03:57:21;;;;;;;5.23;3.53;;;8.30;99.90;;;;;;5054547;28;20496;-65
2023/04/13 03:59:48;;;;;;;11.97;4.43;;;8.30;99.90;;;;;;5054369;28;20511;-64
2023/04/13 04:02:19;;;;;;;6.27;3.47;;;8.30;99.90;;;;;;5054056;28;20578;-66
2023/04/13 04:04:46;;;;;;;10.93;4.73;;;8.30;99.90;;;;;;5054706;28;20919;-64
2023/04/13 04:07:13;;;;;;;6.20;3.43;;;8.30;99.90;;;;;;5054652;28;20423;-65
2023/04/13 04:09:42;;;;;;;8.07;4.23;;;8.30;99.90;;;;;;5054261;28;20463;-64
2023/04/13 04:12:09;;;;;;;6.37;3.73;;;8.40;99.90;;;;;;5055081;28;20467;-65
2023/04/13 04:14:36;;;;;;;7.67;3.03;;;8.30;99.90;;;;;;5054790;28;20451;-65
2023/04/13 04:17:03;;;;;;;8.30;3.33;;;8.40;99.90;;;;;;5054750;28;20466;-65
2023/04/13 04:19:31;;;;;;;4.93;3.03;;;8.30;99.90;;;;;;5054635;28;20460;-64
2023/04/13 04:22:04;;;;;;;11.20;3.60;;;8.30;99.90;;;;;;5054476;28;20565;-65
2023/04/13 04:24:31;;;;;;;5.37;3.80;;;8.30;99.90;;;;;;5054277;28;20915;-66
2023/04/13 04:27:00;;;;;;;4.73;3.23;;;8.40;99.90;;;;;;5054677;28;20459;-64
2023/04/13 04:29:32;;;;;;;5.13;3.60;;;8.40;99.90;;;;;;5054155;28;21035;-65
2023/04/13 04:32:00;;;;;;;7.40;3.63;;;8.40;99.90;;;;;;5054034;28;20558;-66
2023/04/13 04:34:27;;;;;;;5.97;3.40;;;8.40;99.90;;;;;;5054910;28;20440;-66
2023/04/13 04:36:56;;;;;;;10.27;3.50;;;8.40;99.90;;;;;;5054658;28;20526;-66
2023/04/13 04:39:25;;;;;;;5.67;3.30;;;8.40;99.90;;;;;;5053817;28;20832;-65
2023/04/13 04:42:01;;;;;;;8.77;4.63;;;8.40;99.90;;;;;;5053228;28;20477;-65
2023/04/13 04:44:29;;;;;;;5.47;3.60;;;8.40;99.90;;;;;;5054149;28;20525;-66
2023/04/13 04:46:58;;;;;;;7.00;2.57;;;8.40;99.90;;;;;;5054435;28;20482;-65
2023/04/13 04:49:26;;;;;;;7.37;4.20;;;8.40;99.90;;;;;;5054003;28;20447;-65
2023/04/13 04:51:56;;;;;;;8.10;4.63;;;8.40;99.90;;;;;;5053926;28;20970;-66
2023/04/13 04:54:24;;;;;;;6.10;4.57;;;8.40;99.90;;;;;;5053853;28;20908;-64
2023/04/13 04:56:52;;;;;;;7.33;4.20;;;8.40;99.90;;;;;;5054143;28;20849;-65
2023/04/13 04:59:20;;;;;;;5.60;3.80;;;8.50;99.90;;;;;;5054689;28;20489;-65
2023/04/13 05:01:48;;;;;;;11.90;5.57;;;8.50;99.90;;;;;;5054435;28;20475;-66
2023/04/13 05:04:15;;;;;;;7.63;4.90;;;8.50;99.90;;;;;;5053942;28;20461;-65
2023/04/13 05:06:43;;;;;;;8.40;4.60;;;8.60;99.90;;;;;;5054089;28;20435;-66
2023/04/13 05:09:11;;;;;;;5.47;4.00;;;8.50;99.90;;;;;;5054535;28;20455;-65
2023/04/13 05:11:38;;;;;;;7.00;4.70;;;8.50;99.90;;;;;;5053634;28;20499;-65
2023/04/13 05:14:06;;;;;;;7.33;4.77;;;8.60;99.90;;;;;;5053356;28;20490;-65
2023/04/13 05:16:33;;;;;;;6.17;3.77;;;8.60;99.90;;;;;;5052927;28;20510;-65
2023/04/13 05:19:00;;;;;;;9.93;4.37;;;8.60;99.90;;;;;;5053342;28;20428;-65
2023/04/13 05:21:28;;;;;;;9.23;3.87;;;8.60;99.90;;;;;;5053152;28;20458;-66
2023/04/13 05:23:55;;;;;;;7.63;4.47;;;8.60;99.90;;;;;;5053336;28;20482;-65
2023/04/13 05:26:24;;;;;;;8.87;5.20;;;8.70;99.90;;;;;;5053475;28;20496;-66
2023/04/13 05:28:51;;;;;;;11.10;4.70;;;8.70;99.90;;;;;;5053380;28;20483;-65
2023/04/13 05:31:19;;;;;;;12.00;5.30;;;8.70;99.90;;;;;;5054024;28;20510;-65
2023/04/13 05:33:46;;;;;;;6.47;4.53;;;8.70;99.90;;;;;;5051743;28;20471;-65
2023/04/13 05:36:14;;;;;;;11.40;5.17;;;8.80;99.90;;;;;;5054808;28;20849;-65
2023/04/13 05:38:41;;;;;;;10.83;5.57;;;8.80;99.90;;;;;;5057035;28;20473;-65
2023/04/13 05:41:09;;;;;;;8.37;5.23;;;8.80;99.90;;;;;;5056652;28;21077;-66
2023/04/13 05:43:37;;;;;;;9.20;5.20;;;8.80;99.90;;;;;;5056369;28;20478;-66
2023/04/13 05:46:05;;;;;;;6.77;4.57;;;8.80;99.90;;;;;;5056279;28;20483;-66
2023/04/13 05:48:33;;;;;;;8.13;4.67;;;8.90;99.90;;;;;;5056835;28;20532;-65
2023/04/13 05:51:00;;;;;;;7.40;4.97;;;8.90;99.90;;;;;;5056854;28;20486;-64
2023/04/13 05:53:30;;;;;;;6.63;4.90;;;8.80;99.90;;;;;;5056680;28;20439;-66
2023/04/13 05:55:58;;;;;;;6.90;4.53;;;8.80;99.90;;;;;;5056933;28;20497;-66
2023/04/13 05:58:26;;;;;;;8.17;5.00;;;8.90;99.90;;;;;;5056991;28;20490;-65
2023/04/13 06:00:54;;;;;;;5.63;4.00;;;8.90;99.90;;;;;;5057210;28;20502;-65
2023/04/13 06:03:21;;;;;;;5.53;3.50;;;8.90;99.90;;;;;;5057220;28;20828;-65
2023/04/13 06:05:49;;;;;;;8.73;4.90;;;9.00;99.90;;;;;;5057266;28;20447;-65
2023/04/13 06:08:16;;;;;;;9.10;5.10;;;8.90;99.90;;;;;;5055930;28;20854;-66
2023/04/13 06:10:44;;;;;;;5.50;4.30;;;9.00;99.90;;;;;;5056216;28;20459;-66
2023/04/13 06:13:11;;;;;;;8.70;4.83;;;9.00;99.90;;;;;;5056026;28;20478;-65
2023/04/13 06:15:39;;;;;;;6.40;4.50;;;9.10;99.90;;;;;;5056296;28;20497;-65
2023/04/13 06:18:07;;;;;;;7.10;4.13;;;9.10;99.90;;;;;;5056144;28;20502;-65
2023/04/13 06:20:34;;;;;;;6.30;4.10;;;9.10;99.90;;;;;;5055794;28;20479;-65
2023/04/13 06:23:02;;;;;;;10.90;5.23;;;9.10;99.90;;;;;;5056676;28;20907;-65
2023/04/13 06:25:29;;;;;;;6.80;3.93;;;9.10;99.90;;;;;;5056581;28;20887;-65
2023/04/13 06:27:57;;;;;;;12.47;5.27;;;9.20;99.90;;;;;;5056558;28;20458;-65
2023/04/13 06:30:24;;;;;;;4.60;3.70;;;9.20;99.90;;;;;;5057126;28;20469;-65
2023/04/13 06:32:52;;;;;;;6.07;3.30;;;9.20;99.90;;;;;;5056639;28;20459;-66
2023/04/13 06:35:22;;;;;;;8.40;3.80;;;9.30;99.90;;;;;;5056495;28;21008;-65
2023/04/13 06:37:50;;;;;;;7.23;3.60;;;9.30;99.90;;;;;;5055577;28;20471;-65
2023/04/13 06:40:19;;;;;;;5.13;3.50;;;9.30;99.90;;;;;;5056359;28;20463;-67
2023/04/13 06:42:46;;;;;;;7.43;4.30;;;9.30;99.90;;;;;;5056924;28;20974;-66
2023/04/13 06:45:13;;;;;;;9.10;4.13;;;9.30;99.90;;;;;;5055593;28;20852;-66
2023/04/13 06:47:40;;;;;;;7.87;4.60;;;9.30;99.90;;;;;;5054768;28;20970;-66
2023/04/13 06:50:09;;;;;;;7.90;4.37;;;9.40;99.90;;;;;;5055633;28;20447;-65
2023/04/13 06:52:38;;;;;;;7.27;4.53;;;9.40;99.90;;;;;;5055248;28;20526;-66
2023/04/13 06:55:06;;;;;;;7.53;4.63;;;9.50;99.90;;;;;;5055208;28;20427;-65
2023/04/13 06:57:33;;;;;;;4.90;3.63;;;9.50;99.90;;;;;;5055345;28;20439;-65
2023/04/13 07:00:00;;;;;;;5.47;3.50;;;9.60;99.90;;;;;;5054685;28;20495;-65
2023/04/13 07:02:27;;;;;;;8.07;4.10;;;9.60;99.90;;;;;;5054773;28;20460;-65
2023/04/13 07:04:54;;;;;;;3.90;2.73;;;9.60;99.90;;;;;;5055285;28;20469;-65
2023/04/13 07:07:22;;;;;;;4.20;3.20;;;9.60;99.90;;;;;;5055076;28;20446;-64
2023/04/13 07:09:51;;;;;;;4.80;3.67;;;9.70;99.90;;;;;;5054580;28;20780;-64
2023/04/13 07:12:18;;;;;;;5.70;2.90;;;9.70;99.90;;;;;;5056132;28;20471;-65
2023/04/13 07:14:46;;;;;;;6.03;2.67;;;9.70;99.90;;;;;;5055974;28;20544;-65
2023/04/13 07:17:13;;;;;;;5.87;2.93;;;9.70;99.90;;;;;;5054835;28;20473;-66
2023/04/13 07:19:45;;;;;;;3.17;2.40;;;9.70;99.90;;;;;;5054530;28;20522;-66
2023/04/13 07:22:13;;;;;;;6.30;2.70;;;9.70;99.90;;;;;;5054227;28;20998;-66
2023/04/13 07:24:41;;;;;;;13.70;7.93;;;9.80;99.90;;;;;;5054322;28;20578;-66
2023/04/13 07:27:09;;;;;;;10.07;4.93;;;9.70;99.90;;;;;;5054551;28;20436;-66
2023/04/13 07:29:36;;;;;;;4.03;2.70;;;9.80;99.90;;;;;;5054122;28;20471;-65
2023/04/13 07:32:07;;;;;;;3.63;3.23;;;9.80;99.90;;;;;;5054223;28;20475;-66
2023/04/13 07:34:35;;;;;;;4.40;2.67;;;9.80;99.90;;;;;;5054592;28;20887;-65
2023/04/13 07:37:02;;;;;;;3.60;2.50;;;9.90;99.90;;;;;;5054800;28;20981;-67
2023/04/13 07:39:29;;;;;;;3.77;2.23;;;9.90;99.90;;;;;;5054722;28;20887;-65
2023/04/13 07:41:56;;;;;;;5.80;3.10;;;10.00;99.90;;;;;;5054356;28;20463;-66
2023/04/13 07:44:25;;;;;;;3.53;2.10;;;10.10;99.90;;;;;;5054228;28;21010;-64
2023/04/13 07:46:54;;;;;;;3.77;2.47;;;10.10;99.90;;;;;;5052980;28;20509;-64
2023/04/13 07:49:22;;;;;;;7.10;2.40;;;10.20;99.90;;;;;;5054294;28;20537;-67
2023/04/13 07:51:49;;;;;;;4.10;2.90;;;10.30;99.90;;;;;;5054595;28;20542;-66
2023/04/13 07:54:17;;;;;;;3.53;2.37;;;10.40;99.90;;;;;;5053659;28;20969;-65
2023/04/13 07:56:44;;;;;;;2.70;2.20;;;10.40;99.90;;;;;;5053990;28;20428;-66
2023/04/13 07:59:12;;;;;;;3.30;2.37;;;10.50;99.90;;;;;;5053609;28;20459;-66
2023/04/13 08:01:42;;;;;;;4.13;2.33;;;10.60;99.90;;;;;;5053652;28;20467;-66
2023/04/13 08:04:09;;;;;;;4.40;2.63;;;10.70;99.90;;;;;;5054015;28;20522;-66
2023/04/13 08:06:37;;;;;;;3.97;2.30;;;10.80;99.90;;;;;;5053512;28;20490;-66
2023/04/13 08:09:04;;;;;;;2.90;2.13;;;10.90;99.90;;;;;;5053329;28;20475;-65
2023/04/13 08:11:31;;;;;;;4.17;2.23;;;11.00;99.90;;;;;;5053822;28;20475;-66
2023/04/13 08:13:58;;;;;;;10.93;2.47;;;11.20;99.90;;;;;;5054007;28;20455;-69
2023/04/13 08:16:25;;;;;;;3.50;1.87;;;11.40;99.90;;;;;;5053788;28;20863;-66
2023/04/13 08:18:54;;;;;;;4.83;2.50;;;11.50;99.90;;;;;;5054496;28;20493;-67
2023/04/13 08:21:21;;;;;;;2.17;1.50;;;11.60;99.90;;;;;;5054337;28;20471;-66
2023/04/13 08:23:49;;;;;;;3.57;1.80;;;11.80;99.90;;;;;;5053600;28;20547;-66
2023/04/13 08:26:19;;;;;;;3.27;2.10;;;12.10;99.90;;;;;;5054213;28;20525;-66
2023/04/13 08:28:48;;;;;;;6.27;2.43;;;12.60;99.90;;;;;;5053705;28;20498;-67
2023/04/13 08:31:15;;;;;;;2.37;1.77;;;12.70;99.90;;;;;;5053734;28;20459;-66
2023/04/13 08:33:43;;;;;;;3.40;1.33;;;12.80;99.90;;;;;;5054409;28;20443;-65
2023/04/13 08:36:11;;;;;;;2.33;1.57;;;12.90;99.90;;;;;;5053666;28;20447;-66
2023/04/13 08:38:38;;;;;;;2.37;1.73;;;13.00;99.90;;;;;;5053997;28;20430;-66
2023/04/13 08:41:09;;;;;;;3.00;1.40;;;13.00;99.90;;;;;;5052484;28;20507;-65
2023/04/13 08:43:36;;;;;;;5.90;1.70;;;12.90;99.90;;;;;;5053913;28;20586;-66
2023/04/13 08:46:04;;;;;;;2.20;1.30;;;12.80;99.90;;;;;;5053880;28;20955;-65
2023/04/13 08:48:33;;;;;;;2.10;1.43;;;12.90;99.90;;;;;;5054168;28;20455;-67
2023/04/13 08:51:01;;;;;;;2.50;1.50;;;12.70;99.90;;;;;;5053592;28;20988;-66
2023/04/13 08:53:30;;;;;;;3.97;1.67;;;12.60;99.90;;;;;;5054205;28;20449;-65
2023/04/13 08:56:00;;;;;;;1.60;1.30;;;12.50;99.90;;;;;;5053546;28;20435;-66
2023/04/13 08:58:32;;;;;;;6.40;1.33;;;12.40;99.90;;;;;;5053918;28;20481;-65
2023/04/13 09:01:00;;;;;;;2.23;1.30;;;12.30;99.90;;;;;;5053827;28;20470;-65
2023/04/13 09:03:32;;;;;;;1.20;0.70;;;12.10;99.90;;;;;;5053855;28;20561;-65
2023/04/13 09:06:03;;;;;;;2.40;1.00;;;11.90;99.90;;;;;;5054687;28;20617;-64
2023/04/13 09:08:34;;;;;;;1.60;1.00;;;11.90;99.90;;;;;;5054543;28;20455;-63
2023/04/13 09:11:02;;;;;;;1.97;1.10;;;11.90;99.90;;;;;;5055751;28;20509;-66
2023/04/13 09:13:29;;;;;;;2.27;1.67;;;11.90;99.90;;;;;;5057921;28;20443;-65
2023/04/13 09:15:56;;;;;;;13.50;5.67;;;12.10;99.90;;;;;;5057083;28;20442;-64
2023/04/13 09:18:23;;;;;;;1.30;1.00;;;12.50;99.90;;;;;;5056733;28;20455;-65
2023/04/13 09:20:57;;;;;;;2.80;1.70;;;13.00;99.90;;;;;;5057160;28;20467;-66
2023/04/13 09:23:25;;;;;;;7.37;1.30;;;13.40;99.90;;;;;;5057113;28;20514;-65
2023/04/13 09:26:04;;;;;;;1.23;1.13;;;13.80;99.90;;;;;;5057240;28;20458;-66
2023/04/13 09:28:31;;;;;;;1.63;1.20;;;13.90;99.90;;;;;;5056373;28;20450;-66
2023/04/13 09:31:03;;;;;;;3.00;1.17;;;14.00;99.90;;;;;;5056512;28;20471;-66
2023/04/13 09:33:34;;;;;;;3.70;1.77;;;13.80;99.90;;;;;;5056107;28;20443;-65
2023/04/13 09:36:10;;;;;;;3.03;2.00;;;13.60;99.90;;;;;;5057165;28;20477;-66
2023/04/13 09:38:39;;;;;;;1.97;1.53;;;13.30;99.90;;;;;;5056778;28;20538;-66
2023/04/13 09:41:07;;;;;;;1.80;1.30;;;13.30;99.90;;;;;;5056461;28;20581;-65
2023/04/13 09:43:36;;;;;;;4.07;1.40;;;13.50;99.90;;;;;;5055976;28;20479;-65
2023/04/13 09:46:04;;;;;;;7.60;5.60;;;13.80;99.90;;;;;;5056433;28;20569;-65
2023/04/13 09:48:31;;;;;;;4.50;2.73;;;14.40;99.90;;;;;;5056367;28;20461;-66
2023/04/13 09:50:59;;;;;;;4.57;1.93;;;14.90;99.90;;;;;;5056667;28;20463;-65
2023/04/13 09:53:27;;;;;;;1.83;1.27;;;15.60;99.90;;;;;;5056016;28;20451;-65
2023/04/13 09:55:58;;;;;;;4.90;1.47;;;16.20;99.90;;;;;;5055988;28;20475;-66
2023/04/13 09:58:28;;;;;;;1.63;1.30;;;17.10;99.90;;;;;;5055675;28;20878;-65
2023/04/13 10:00:55;;;;;;;2.83;1.30;;;17.90;99.90;;;;;;5055342;28;20877;-66
2023/04/13 10:03:22;;;;;;;2.37;1.50;;;18.40;96.70;;;;;;5055380;28;20549;-67
2023/04/13 10:05:49;;;;;;;1.60;1.27;;;18.40;94.10;;;;;;5055026;28;20978;-66
2023/04/13 10:08:16;;;;;;;3.23;0.93;;;18.30;93.20;;;;;;5055089;28;21062;-65
2023/04/13 10:10:44;;;;;;;2.87;1.30;;;18.20;94.10;;;;;;5055777;28;20467;-64
2023/04/13 10:13:15;;;;;;;2.90;1.03;;;18.40;93.20;;;;;;5055305;28;20447;-66
2023/04/13 10:16:01;;;;;;;7.63;4.50;;;18.50;92.90;;;;;;5055117;28;20494;-65
2023/04/13 10:18:41;;;;;;;3.20;1.70;;;18.60;91.80;;;;;;5055279;28;20431;-65
2023/04/13 10:21:10;;;;;;;1.77;1.60;;;18.20;91.40;;;;;;5055238;28;20482;-66
2023/04/13 10:23:37;;;;;;;2.10;1.83;;;17.80;92.00;;;;;;5055045;28;20846;-66
2023/04/13 10:26:08;;;;;;;2.73;1.77;;;17.40;92.30;;;;;;5055834;28;20435;-66
2023/04/13 10:28:42;;;;;;;1.47;1.33;;;17.00;93.20;;;;;;5055963;28;20850;-67
2023/04/13 10:31:11;;;;;;;1.27;1.03;;;16.30;94.90;;;;;;5055744;28;20475;-65
2023/04/13 10:33:48;;;;;;;6.90;1.80;;;15.90;97.00;;;;;;5056122;28;20443;-66
2023/04/13 10:36:15;;;;;;;3.87;1.10;;;15.50;97.20;;;;;;5055695;28;20475;-66
2023/04/13 10:38:45;;;;;;;2.33;1.00;;;15.20;98.10;;;;;;5056554;28;20569;-66
2023/04/13 10:41:24;;;;;;;2.73;1.20;;;14.90;99.00;;;;;;5055785;28;21019;-66
2023/04/13 10:44:02;;;;;;;1.53;1.10;;;14.70;99.90;;;;;;5056437;28;20427;-66
2023/04/13 10:46:32;;;;;;;3.17;1.20;;;14.60;99.90;;;;;;5055759;28;20546;-65
2023/04/13 10:49:00;;;;;;;1.90;1.30;;;14.40;99.90;;;;;;5056259;28;20440;-66
2023/04/13 10:51:37;;;;;;;8.10;4.07;;;14.40;99.90;;;;;;5055860;28;20549;-66
2023/04/13 10:54:07;;;;;;;9.13;4.10;;;14.40;99.90;;;;;;5056273;28;20443;-66
2023/04/13 10:56:34;;;;;;;2.97;1.80;;;14.70;99.90;;;;;;5056702;28;20431;-66
2023/04/13 10:59:01;;;;;;;1.43;1.00;;;14.70;99.90;;;;;;5055450;28;20837;-66
2023/04/13 11:01:30;;;;;;;2.30;1.30;;;14.80;99.90;;;;;;5055054;28;20468;-66
2023/04/13 11:04:02;;;;;;;3.33;1.03;;;15.00;99.90;;;;;;5055023;28;20443;-65
2023/04/13 11:06:34;;;;;;;2.37;1.40;;;15.10;99.90;;;;;;5054405;28;20454;-66
2023/04/13 11:09:05;;;;;;;3.00;1.50;;;15.30;99.90;;;;;;5054207;28;20447;-66
2023/04/13 11:11:33;;;;;;;2.50;1.23;;;15.20;99.90;;;;;;5055035;28;20509;-66
2023/04/13 11:14:00;;;;;;;4.70;1.30;;;15.00;99.90;;;;;;5055010;28;20443;-67
2023/04/13 11:16:27;;;;;;;1.93;1.03;;;14.80;99.90;;;;;;5054612;28;20530;-67
2023/04/13 11:19:02;;;;;;;1.63;1.00;;;14.70;99.90;;;;;;5054821;28;20883;-66
2023/04/13 11:21:30;;;;;;;2.77;1.00;;;14.40;99.90;;;;;;5054981;28;20469;-66
2023/04/13 11:24:00;;;;;;;2.50;0.90;;;14.30;99.90;;;;;;5054880;28;20947;-65
2023/04/13 11:26:36;;;;;;;8.50;1.10;;;14.30;99.90;;;;;;5055055;28;20824;-66
2023/04/13 11:29:03;;;;;;;1.40;1.00;;;14.40;99.90;;;;;;5055213;28;20473;-66
2023/04/13 11:31:38;;;;;;;1.80;1.33;;;14.50;99.90;;;;;;5054785;28;20473;-66
2023/04/13 11:34:10;;;;;;;1.93;0.97;;;14.50;99.90;;;;;;5054610;28;20480;-65
2023/04/13 11:36:37;;;;;;;3.73;1.30;;;14.50;99.90;;;;;;5055376;28;20493;-66
2023/04/13 11:39:07;;;;;;;3.83;1.00;;;14.50;99.90;;;;;;5054835;28;20450;-65
2023/04/13 11:41:39;;;;;;;2.57;1.13;;;14.30;99.90;;;;;;5054832;28;20964;-66
2023/04/13 11:44:06;;;;;;;1.93;1.00;;;14.30;99.90;;;;;;5054385;28;20923;-66
2023/04/13 11:46:34;;;;;;;5.47;1.33;;;14.30;99.90;;;;;;5054535;28;20458;-66
2023/04/13 11:49:01;;;;;;;1.30;1.00;;;14.30;99.90;;;;;;5054903;28;20538;-66
2023/04/13 11:51:30;;;;;;;1.53;1.00;;;14.40;99.90;;;;;;5055195;28;20470;-65
2023/04/13 11:53:58;;;;;;;1.30;0.80;;;14.40;99.90;;;;;;5054870;28;20474;-66
2023/04/13 11:56:26;;;;;;;4.00;1.40;;;14.40;99.90;;;;;;5054922;28;20451;-66
2023/04/13 11:58:53;;;;;;;6.10;2.20;;;14.40;99.90;;;;;;5054981;28;20530;-66
2023/04/13 12:01:24;;;;;;;2.17;1.03;;;14.40;99.90;;;;;;5053911;28;20493;-66
2023/04/13 12:03:51;;;;;;;7.60;4.67;;;14.40;99.90;;;;;;5053978;28;20446;-66
2023/04/13 12:06:18;;;;;;;2.00;1.30;;;14.40;99.90;;;;;;5054075;28;20495;-65
2023/04/13 12:08:46;;;;;;;1.67;0.93;;;14.50;99.90;;;;;;5053749;28;20557;-65
2023/04/13 12:11:13;;;;;;;1.27;1.03;;;14.60;99.90;;;;;;5054488;28;20490;-65
2023/04/13 12:13:43;;;;;;;2.40;1.63;;;14.70;99.90;;;;;;5054211;28;20911;-65
2023/04/13 12:16:11;;;;;;;1.60;1.30;;;14.80;99.90;;;;;;5054072;28;20981;-66
2023/04/13 12:18:44;;;;;;;3.40;0.93;;;15.00;99.90;;;;;;5054165;28;20442;-66
2023/04/13 12:21:16;;;;;;;2.10;1.20;;;15.10;99.90;;;;;;5053990;28;20477;-65
2023/04/13 12:23:53;;;;;;;3.10;1.27;;;15.10;99.90;;;;;;5054002;28;20497;-65
2023/04/13 12:26:23;;;;;;;1.20;0.90;;;15.20;99.90;;;;;;5053392;28;20923;-66
2023/04/13 12:28:56;;;;;;;2.77;1.10;;;15.30;99.90;;;;;;5053145;28;20505;-65
2023/04/13 12:31:23;;;;;;;1.50;0.97;;;15.60;99.90;;;;;;5053646;28;20998;-65
2023/04/13 12:33:51;;;;;;;1.40;1.07;;;15.80;99.90;;;;;;5052844;28;20447;-65
2023/04/13 12:36:18;;;;;;;1.57;1.20;;;15.70;99.20;;;;;;5053174;28;20450;-65
2023/04/13 12:38:45;;;;;;;4.00;2.13;;;15.60;99.40;;;;;;5053641;28;20506;-66
2023/04/13 12:41:13;;;;;;;4.60;2.77;;;15.40;99.10;;;;;;5053566;28;20467;-66
2023/04/13 12:43:40;;;;;;;10.03;5.23;;;15.40;99.70;;;;;;5053346;28;20475;-65
2023/04/13 12:46:07;;;;;;;3.70;1.43;;;15.30;99.90;;;;;;5055210;28;20514;-65
2023/04/13 12:48:35;;;;;;;4.23;1.60;;;15.40;99.60;;;;;;5057958;28;20638;-66
2023/04/13 12:51:02;;;;;;;2.20;1.37;;;15.50;99.30;;;;;;5057151;28;20535;-65
2023/04/13 12:53:29;;;;;;;2.70;1.47;;;15.50;99.00;;;;;;5057590;28;20432;-66
2023/04/13 12:55:56;;;;;;;3.03;1.30;;;15.50;98.90;;;;;;5057624;28;20439;-66
2023/04/13 12:58:24;;;;;;;3.70;1.20;;;15.40;99.60;;;;;;5057305;28;20474;-64